createdAt,value
2022-08-26T00:01:18.423Z,100201.53
2022-08-26T00:03:53.757Z,100196.09
2022-08-26T00:06:21.513Z,100199.81
2022-08-26T00:08:50.260Z,100199.81
2022-08-26T00:11:26.346Z,100203.53
2022-08-26T00:13:54.859Z,100193.06
2022-08-26T00:16:23.362Z,100175.28
2022-08-26T00:18:51.079Z,100197.59
2022-08-26T00:21:20.202Z,100194.06
2022-08-26T00:23:47.893Z,100191.72
2022-08-26T00:26:15.626Z,100198.81
2022-08-26T00:28:43.460Z,100192.88
2022-08-26T00:31:11.539Z,100199.16
2022-08-26T00:33:39.278Z,100197.47
2022-08-26T00:36:07.433Z,100202.03
2022-08-26T00:38:37.846Z,100197.81
2022-08-26T00:41:06.085Z,100192.56
2022-08-26T00:43:46.435Z,100187.97
2022-08-26T00:46:17.637Z,100196.09
2022-08-26T00:48:45.506Z,100188.16
2022-08-26T00:51:16.035Z,100181.06
2022-08-26T00:53:48.614Z,100167.00
2022-08-26T00:56:17.972Z,100184.97
2022-08-26T00:58:47.889Z,100188.66
2022-08-26T01:01:15.827Z,100191.38
2022-08-26T01:03:43.706Z,100181.72
2022-08-26T01:06:13.070Z,100183.59
2022-08-26T01:08:41.149Z,100184.59
2022-08-26T01:11:10.201Z,100130.31
2022-08-26T01:13:38.050Z,100182.22
2022-08-26T01:16:08.275Z,100160.06
2022-08-26T01:18:36.000Z,100178.66
2022-08-26T01:21:08.811Z,100187.78
2022-08-26T01:23:39.320Z,100186.13
2022-08-26T01:26:09.511Z,100159.22
2022-08-26T01:28:51.554Z,100175.63
2022-08-26T01:31:20.708Z,100185.59
2022-08-26T01:33:51.942Z,100168.69
2022-08-26T01:36:19.902Z,100187.63
2022-08-26T01:38:49.784Z,100190.66
2022-08-26T01:41:20.000Z,100126.25
2022-08-26T01:43:55.898Z,100191.69
2022-08-26T01:46:23.712Z,100190.84
2022-08-26T01:48:52.360Z,100198.97
2022-08-26T01:51:22.757Z,100190.19
2022-08-26T01:53:51.782Z,100188.47
2022-08-26T01:56:21.239Z,100138.22
2022-08-26T01:58:51.800Z,100197.78
2022-08-26T02:01:19.900Z,100191.69
2022-08-26T02:03:50.887Z,100191.69
2022-08-26T02:06:19.648Z,100192.72
2022-08-26T02:08:49.150Z,100137.75
2022-08-26T02:11:19.279Z,100195.41
2022-08-26T02:13:47.796Z,100128.38
2022-08-26T02:16:16.935Z,100196.78
2022-08-26T02:18:44.691Z,100195.91
2022-08-26T02:21:14.843Z,100187.97
2022-08-26T02:23:42.988Z,100196.09
2022-08-26T02:26:14.420Z,100192.03
2022-08-26T02:28:50.710Z,100193.72
2022-08-26T02:31:18.574Z,100190.16
2022-08-26T02:33:46.316Z,100187.63
2022-08-26T02:36:14.090Z,100191.34
2022-08-26T02:38:43.282Z,100187.63
2022-08-26T02:41:11.252Z,100185.94
2022-08-26T02:43:38.960Z,100185.25
2022-08-26T02:46:08.016Z,100179.19
2022-08-26T02:48:36.473Z,100180.00
2022-08-26T02:51:04.558Z,100182.06
2022-08-26T02:53:32.254Z,100175.97
2022-08-26T02:56:03.819Z,100174.78
2022-08-26T02:58:31.987Z,100176.63
2022-08-26T03:00:59.749Z,100171.75
2022-08-26T03:03:31.946Z,100163.09
2022-08-26T03:06:00.959Z,100166.50
2022-08-26T03:08:28.653Z,100167.50
2022-08-26T03:10:56.370Z,100162.56
2022-08-26T03:13:24.065Z,100156.50
2022-08-26T03:15:51.799Z,100171.38
2022-08-26T03:18:19.511Z,100163.44
2022-08-26T03:20:49.688Z,100166.31
2022-08-26T03:23:17.383Z,100166.47
2022-08-26T03:25:50.125Z,100162.91
2022-08-26T03:28:18.121Z,100169.34
2022-08-26T03:30:46.236Z,100158.00
2022-08-26T03:33:14.141Z,100157.00
2022-08-26T03:35:43.535Z,100159.72
2022-08-26T03:38:12.883Z,100151.78
2022-08-26T03:40:40.819Z,100150.03
2022-08-26T03:43:10.106Z,100145.47
2022-08-26T03:45:38.399Z,100142.06
2022-08-26T03:48:06.408Z,100073.91
2022-08-26T03:50:35.805Z,100127.19
2022-08-26T03:53:03.974Z,100143.28
2022-08-26T03:55:33.503Z,100140.56
2022-08-26T03:58:01.730Z,100142.41
2022-08-26T04:00:30.316Z,100148.84
2022-08-26T04:02:58.267Z,100146.31
2022-08-26T04:05:26.078Z,100151.03
2022-08-26T04:07:56.044Z,100149.34
2022-08-26T04:10:28.769Z,100156.59
2022-08-26T04:13:05.950Z,100098.28
2022-08-26T04:15:34.319Z,100148.00
2022-08-26T04:18:02.005Z,100141.03
2022-08-26T04:20:29.746Z,100140.06
2022-08-26T04:22:57.443Z,100138.34
2022-08-26T04:25:25.349Z,100144.59
2022-08-26T04:27:53.264Z,100141.22
2022-08-26T04:30:22.318Z,100148.34
2022-08-26T04:32:50.052Z,100143.09
2022-08-26T04:35:17.836Z,100148.66
2022-08-26T04:37:45.825Z,100137.31
2022-08-26T04:40:13.776Z,100123.78
2022-08-26T04:42:41.536Z,100148.13
2022-08-26T04:45:11.599Z,100169.78
2022-08-26T04:47:40.880Z,100150.84
2022-08-26T04:50:11.051Z,100152.84
2022-08-26T04:52:38.897Z,100160.16
2022-08-26T04:55:08.629Z,100144.06
2022-08-26T04:57:36.341Z,100157.94
2022-08-26T05:00:05.651Z,100087.66
2022-08-26T05:02:33.402Z,100154.38
2022-08-26T05:05:02.673Z,100158.75
2022-08-26T05:07:31.329Z,100155.41
2022-08-26T05:10:00.233Z,100158.09
2022-08-26T05:12:28.792Z,100071.78
2022-08-26T05:14:56.525Z,100152.84
2022-08-26T05:17:25.199Z,100138.78
2022-08-26T05:19:52.912Z,100152.00
2022-08-26T05:22:21.988Z,100159.41
2022-08-26T05:24:50.403Z,100151.97
2022-08-26T05:27:18.142Z,100154.88
2022-08-26T05:29:45.910Z,100158.81
2022-08-26T05:32:13.871Z,100162.09
2022-08-26T05:34:43.049Z,100157.31
2022-08-26T05:37:10.848Z,100155.84
2022-08-26T05:39:43.586Z,100156.88
2022-08-26T05:42:19.929Z,100158.19
2022-08-26T05:44:55.774Z,100167.06
2022-08-26T05:47:24.237Z,100117.91
2022-08-26T05:49:51.972Z,100167.22
2022-08-26T05:52:20.031Z,100158.75
2022-08-26T05:54:49.377Z,100163.63
2022-08-26T05:57:17.197Z,100117.44
2022-08-26T05:59:46.292Z,100160.78
2022-08-26T06:02:14.036Z,100163.63
2022-08-26T06:04:42.048Z,100167.84
2022-08-26T06:07:11.657Z,100165.56
2022-08-26T06:09:41.482Z,100172.00
2022-08-26T06:12:11.345Z,100160.31
2022-08-26T06:14:39.044Z,100165.25
2022-08-26T06:17:07.144Z,100155.28
2022-08-26T06:19:37.388Z,100146.03
2022-08-26T06:22:29.120Z,100156.38
2022-08-26T06:25:14.220Z,100161.22
2022-08-26T06:27:43.275Z,100159.25
2022-08-26T06:30:12.541Z,100153.81
2022-08-26T06:32:40.265Z,100154.56
2022-08-26T06:35:11.854Z,100152.22
2022-08-26T06:37:40.163Z,100146.66
2022-08-26T06:40:09.776Z,100149.19
2022-08-26T06:42:39.251Z,100148.22
2022-08-26T06:45:09.257Z,100148.72
2022-08-26T06:47:37.096Z,100154.81
2022-08-26T06:50:04.985Z,100155.03
2022-08-26T06:52:32.792Z,100085.13
2022-08-26T06:55:00.730Z,100146.22
2022-08-26T06:57:32.825Z,100156.06
2022-08-26T07:00:02.886Z,100161.66
2022-08-26T07:02:33.147Z,100159.84
2022-08-26T07:05:00.907Z,100156.81
2022-08-26T07:07:29.333Z,100155.19
2022-08-26T07:09:57.149Z,100158.06
2022-08-26T07:12:24.882Z,100036.03
2022-08-26T07:14:53.007Z,100166.38
2022-08-26T07:17:21.650Z,100166.06
2022-08-26T07:19:54.164Z,99978.72
2022-08-26T07:22:21.913Z,100163.44
2022-08-26T07:24:49.792Z,100151.53
2022-08-26T07:27:17.818Z,100170.03
2022-08-26T07:29:45.936Z,100158.69
2022-08-26T07:32:17.828Z,100111.81
2022-08-26T07:34:45.705Z,100184.25
2022-08-26T07:37:14.882Z,100172.94
2022-08-26T07:39:50.530Z,100158.72
2022-08-26T07:42:19.012Z,100107.44
2022-08-26T07:44:47.072Z,100129.28
2022-08-26T07:47:24.828Z,100182.44
2022-08-26T07:49:54.258Z,100183.13
2022-08-26T07:52:26.670Z,100179.94
2022-08-26T07:54:55.113Z,100183.16
2022-08-26T07:57:24.245Z,100187.22
2022-08-26T07:59:52.151Z,100190.59
2022-08-26T08:02:22.870Z,100136.47
2022-08-26T08:04:51.695Z,100185.34
2022-08-26T08:07:19.553Z,100182.19
2022-08-26T08:09:49.599Z,100184.56
2022-08-26T08:12:17.356Z,100167.84
2022-08-26T08:14:46.873Z,100186.25
2022-08-26T08:17:16.199Z,100144.94
2022-08-26T08:19:43.912Z,100179.19
2022-08-26T08:22:17.348Z,100119.25
2022-08-26T08:24:49.727Z,100183.91
2022-08-26T08:27:22.849Z,100182.72
2022-08-26T08:29:54.137Z,100177.84
2022-08-26T08:32:21.945Z,100180.19
2022-08-26T08:34:49.662Z,100176.31
2022-08-26T08:37:17.460Z,100169.22
2022-08-26T08:39:45.455Z,100174.59
2022-08-26T08:42:38.868Z,100115.91
2022-08-26T08:45:09.861Z,100177.31
2022-08-26T08:47:38.861Z,100178.66
2022-08-26T08:50:12.294Z,100177.19
2022-08-26T08:52:40.018Z,100168.88
2022-08-26T08:55:11.110Z,100165.66
2022-08-26T08:57:49.916Z,100122.00
2022-08-26T09:00:30.369Z,100164.63
2022-08-26T09:02:59.979Z,100183.91
2022-08-26T09:05:31.871Z,100170.88
2022-08-26T09:08:03.677Z,100101.00
2022-08-26T09:10:36.307Z,100150.91
2022-08-26T09:13:07.172Z,100172.72
2022-08-26T09:15:41.444Z,100167.47
2022-08-26T09:18:12.503Z,100164.06
2022-08-26T09:20:45.625Z,100162.00
2022-08-26T09:23:13.423Z,100158.47
2022-08-26T09:25:48.104Z,100161.47
2022-08-26T09:28:19.024Z,100163.84
2022-08-26T09:30:47.106Z,100118.72
2022-08-26T09:33:17.631Z,100155.38
2022-08-26T09:35:48.788Z,100063.63
2022-08-26T09:38:26.930Z,100154.66
2022-08-26T09:40:59.336Z,100070.53
2022-08-26T09:43:29.106Z,100145.38
2022-08-26T09:46:10.229Z,100148.75
2022-08-26T09:48:40.535Z,100094.31
2022-08-26T09:51:27.378Z,100097.50
2022-08-26T09:53:55.841Z,100087.53
2022-08-26T09:56:27.554Z,100140.44
2022-08-26T09:58:57.124Z,100131.94
2022-08-26T10:01:30.573Z,100082.56
2022-08-26T10:04:05.453Z,100129.03
2022-08-26T10:06:34.505Z,100121.72
2022-08-26T10:09:08.309Z,100112.59
2022-08-26T10:11:40.192Z,100044.81
2022-08-26T10:14:11.379Z,100103.75
2022-08-26T10:16:42.808Z,100032.72
2022-08-26T10:19:12.324Z,100029.03
2022-08-26T10:21:43.153Z,100095.72
2022-08-26T10:24:11.309Z,100092.19
2022-08-26T10:26:41.323Z,100028.50
2022-08-26T10:29:11.225Z,100087.13
2022-08-26T10:31:40.649Z,100074.91
2022-08-26T10:34:08.698Z,100071.19
2022-08-26T10:37:15.565Z,100073.25
2022-08-26T10:39:43.618Z,100065.59
2022-08-26T10:42:16.808Z,100072.69
2022-08-26T10:44:47.381Z,100063.53
2022-08-26T10:47:18.500Z,100070.16
2022-08-26T10:49:46.809Z,100067.28
2022-08-26T10:52:16.792Z,100076.91
2022-08-26T10:54:45.053Z,100074.88
2022-08-26T10:57:14.708Z,100006.66
2022-08-26T10:59:49.804Z,100069.94
2022-08-26T11:02:24.918Z,100070.78
2022-08-26T11:04:55.923Z,100058.91
2022-08-26T11:07:33.562Z,100062.28
2022-08-26T11:10:01.476Z,100066.88
2022-08-26T11:12:49.545Z,100006.75
2022-08-26T11:15:50.884Z,100064.34
2022-08-26T11:18:45.339Z,100057.69
2022-08-26T11:21:52.980Z,100041.78
2022-08-26T11:24:46.780Z,100054.13
2022-08-26T11:27:52.270Z,100064.81
2022-08-26T11:30:57.007Z,99973.78
2022-08-26T11:34:00.270Z,100062.59
2022-08-26T11:36:58.440Z,100056.97
2022-08-26T11:39:29.788Z,100059.50
2022-08-26T11:42:00.877Z,99987.25
2022-08-26T11:44:31.236Z,100000.22
2022-08-26T11:47:00.517Z,100031.97
2022-08-26T11:49:29.787Z,99985.72
2022-08-26T11:52:13.024Z,100044.56
2022-08-26T11:54:40.892Z,99994.78
2022-08-26T11:57:11.909Z,100048.13
2022-08-26T11:59:40.365Z,100047.94
2022-08-26T12:02:13.191Z,100044.22
2022-08-26T12:04:42.454Z,100047.59
2022-08-26T12:07:10.340Z,100046.56
2022-08-26T12:09:39.142Z,100051.81
2022-08-26T12:12:14.562Z,100059.78
2022-08-26T12:14:42.336Z,100072.34
2022-08-26T12:17:11.477Z,100069.44
2022-08-26T12:19:39.640Z,100066.91
2022-08-26T12:22:23.446Z,100052.50
2022-08-26T12:24:53.438Z,99987.91
2022-08-26T12:27:24.461Z,99991.31
2022-08-26T12:30:02.636Z,99985.41
2022-08-26T12:32:31.377Z,100037.34
2022-08-26T12:35:00.856Z,100030.91
2022-08-26T12:37:30.369Z,100037.16
2022-08-26T12:39:58.444Z,100041.56
2022-08-26T12:42:42.000Z,100038.50
2022-08-26T12:45:10.572Z,100025.75
2022-08-26T12:47:42.566Z,100028.28
2022-08-26T12:50:12.965Z,99994.22
2022-08-26T12:52:44.282Z,100006.69
2022-08-26T12:55:20.642Z,99946.75
2022-08-26T12:57:48.451Z,100018.59
2022-08-26T13:00:33.149Z,99979.97
2022-08-26T13:03:01.754Z,99977.56
2022-08-26T13:05:33.090Z,100019.53
2022-08-26T13:08:16.237Z,100021.88
2022-08-26T13:10:46.308Z,99994.81
2022-08-26T13:13:14.107Z,100007.09
2022-08-26T13:15:41.819Z,100004.56
2022-08-26T13:18:09.542Z,99999.41
2022-08-26T13:20:41.657Z,99992.94
2022-08-26T13:23:09.518Z,99990.06
2022-08-26T13:25:38.852Z,99999.72
2022-08-26T13:28:06.568Z,100004.28
2022-08-26T13:30:34.353Z,100009.34
2022-08-26T13:33:02.375Z,100011.22
2022-08-26T13:35:31.664Z,100014.59
2022-08-26T13:37:59.412Z,100001.47
2022-08-26T13:40:30.244Z,100020.88
2022-08-26T13:43:03.039Z,100018.34
2022-08-26T13:45:31.635Z,100008.50
2022-08-26T13:48:00.978Z,100016.63
2022-08-26T13:50:28.677Z,100018.72
2022-08-26T13:52:56.425Z,100027.03
2022-08-26T13:55:24.144Z,100029.75
2022-08-26T13:57:52.261Z,100027.78
2022-08-26T14:00:21.586Z,100034.53
2022-08-26T14:02:49.275Z,100024.88
2022-08-26T14:05:17.211Z,100025.06
2022-08-26T14:07:44.936Z,100019.81
2022-08-26T14:10:13.005Z,100019.81
2022-08-26T14:12:40.917Z,100022.72
2022-08-26T14:15:09.639Z,100021.69
2022-08-26T14:17:38.668Z,100025.25
2022-08-26T14:20:07.413Z,100032.53
2022-08-26T14:22:40.306Z,100050.69
2022-08-26T14:25:11.814Z,100054.44
2022-08-26T14:27:39.697Z,100051.72
2022-08-26T14:30:10.028Z,100033.84
2022-08-26T14:32:39.628Z,100035.81
2022-08-26T14:35:08.397Z,99988.50
2022-08-26T14:37:36.115Z,100016.16
2022-08-26T14:40:05.879Z,100016.16
2022-08-26T14:42:35.730Z,100014.47
2022-08-26T14:45:03.994Z,100018.41
2022-08-26T14:47:31.694Z,100036.53
2022-08-26T14:50:00.805Z,100039.44
2022-08-26T14:52:28.504Z,100045.72
2022-08-26T14:54:55.293Z,100032.97
2022-08-26T14:57:23.418Z,100014.16
2022-08-26T14:59:51.162Z,100005.38
2022-08-26T15:02:27.700Z,100005.38
2022-08-26T15:05:02.770Z,100002.00
2022-08-26T15:07:30.514Z,100007.44
2022-08-26T15:09:58.587Z,100026.44
2022-08-26T15:12:26.281Z,100030.81
2022-08-26T15:14:53.986Z,100017.06
2022-08-26T15:17:21.679Z,100009.59
2022-08-26T15:19:49.515Z,100011.09
2022-08-26T15:22:18.560Z,100009.41
2022-08-26T15:24:46.296Z,100021.38
2022-08-26T15:27:13.994Z,100020.19
2022-08-26T15:29:41.761Z,100027.31
2022-08-26T15:32:09.472Z,100033.66
2022-08-26T15:34:37.240Z,100023.28
2022-08-26T15:37:06.096Z,100013.94
2022-08-26T15:39:35.216Z,100027.50
2022-08-26T15:42:02.973Z,100022.94
2022-08-26T15:44:30.696Z,99975.34
2022-08-26T15:46:59.098Z,100024.59
2022-08-26T15:49:27.436Z,100021.69
2022-08-26T15:51:55.159Z,100017.97
2022-08-26T15:54:23.464Z,99953.44
2022-08-26T15:56:53.101Z,100031.84
2022-08-26T15:59:22.064Z,99977.41
2022-08-26T16:01:50.387Z,100038.28
2022-08-26T16:04:18.711Z,100041.19
2022-08-26T16:06:47.283Z,100047.66
2022-08-26T16:09:15.000Z,100058.50
2022-08-26T16:11:42.863Z,100019.97
2022-08-26T16:14:11.975Z,100064.31
2022-08-26T16:16:40.300Z,100074.50
2022-08-26T16:19:08.093Z,100080.13
2022-08-26T16:21:35.939Z,99988.06
2022-08-26T16:24:04.362Z,100080.47
2022-08-26T16:26:33.274Z,100054.03
2022-08-26T16:29:01.868Z,100044.09
2022-08-26T16:31:30.998Z,100079.53
2022-08-26T16:36:20.840Z,100088.59
2022-08-26T16:38:53.302Z,100093.16
2022-08-26T16:41:21.033Z,100084.34
2022-08-26T16:43:48.776Z,100088.09
2022-08-26T16:46:17.027Z,100083.72
2022-08-26T16:48:46.253Z,100027.50
2022-08-26T16:51:15.334Z,100038.84
2022-08-26T16:53:43.293Z,100039.03
2022-08-26T16:56:13.354Z,100085.44
2022-08-26T16:58:41.050Z,100079.38
2022-08-26T17:01:08.795Z,100073.28
2022-08-26T17:03:36.560Z,100071.59
2022-08-26T17:06:06.009Z,99950.25
2022-08-26T17:08:33.733Z,100075.69
2022-08-26T17:11:01.492Z,100076.91
2022-08-26T17:13:35.851Z,100081.47
2022-08-26T17:16:04.950Z,100070.84
2022-08-26T17:18:33.360Z,100087.44
2022-08-26T17:21:01.702Z,100018.59
2022-08-26T17:23:30.916Z,100038.00
2022-08-26T17:25:58.691Z,100093.38
2022-08-26T17:28:26.394Z,100075.44
2022-08-26T17:30:54.150Z,100081.03
2022-08-26T17:33:24.493Z,100088.31
2022-08-26T17:35:52.992Z,100094.94
2022-08-26T17:38:20.785Z,100094.94
2022-08-26T17:40:52.975Z,100093.63
2022-08-26T17:43:20.662Z,100090.75
2022-08-26T17:45:48.479Z,100052.63
2022-08-26T17:48:17.204Z,100112.78
2022-08-26T17:50:45.533Z,100117.38
2022-08-26T17:53:18.898Z,100134.66
2022-08-26T17:55:47.203Z,100126.72
2022-08-26T17:58:16.310Z,100134.00
2022-08-26T18:00:44.454Z,100095.13
2022-08-26T18:03:12.154Z,100140.44
2022-08-26T18:05:39.915Z,100134.69
2022-08-26T18:08:07.626Z,100134.34
2022-08-26T18:10:35.388Z,100065.06
2022-08-26T18:13:03.145Z,100063.41
2022-08-26T18:15:32.346Z,100148.44
2022-08-26T18:18:00.098Z,100164.22
2022-08-26T18:20:27.845Z,100159.66
2022-08-26T18:22:55.538Z,100157.97
2022-08-26T18:25:23.476Z,100164.56
2022-08-26T18:27:51.191Z,100173.72
2022-08-26T18:30:20.782Z,100172.03
2022-08-26T18:32:49.903Z,100174.06
2022-08-26T18:35:17.668Z,100126.94
2022-08-26T18:37:45.454Z,100171.53
2022-08-26T18:40:14.322Z,100172.56
2022-08-26T18:42:42.348Z,100128.94
2022-08-26T18:45:16.128Z,100173.56
2022-08-26T18:47:44.329Z,100172.75
2022-08-26T18:50:13.391Z,100170.22
2022-08-26T18:52:41.217Z,100161.41
2022-08-26T18:55:09.058Z,100167.69
2022-08-26T18:57:36.788Z,100159.72
2022-08-26T19:00:05.581Z,100148.22
2022-08-26T19:02:34.238Z,100160.91
2022-08-26T19:05:02.369Z,100159.06
2022-08-26T19:07:31.445Z,100166.31
2022-08-26T19:09:59.193Z,100165.69
2022-08-26T19:12:27.150Z,100169.56
2022-08-26T19:14:54.923Z,100173.31
2022-08-26T19:17:22.758Z,100174.84
2022-08-26T19:19:50.633Z,100177.41
2022-08-26T19:22:19.829Z,100169.25
2022-08-26T19:24:48.912Z,100176.53
2022-08-26T19:27:16.629Z,100178.56
2022-08-26T19:29:44.379Z,100178.88
2022-08-26T19:32:12.453Z,100176.53
2022-08-26T19:34:40.175Z,100153.53
2022-08-26T19:37:07.872Z,100171.97
2022-08-26T19:39:36.140Z,100126.69
2022-08-26T19:42:05.595Z,100171.28
2022-08-26T19:44:50.894Z,100174.16
2022-08-26T19:47:18.568Z,100177.03
2022-08-26T19:49:46.296Z,100170.81
2022-08-26T19:52:13.994Z,100170.97
2022-08-26T19:54:41.759Z,100182.81
2022-08-26T19:57:11.780Z,100178.78
2022-08-26T19:59:40.239Z,100191.97
2022-08-26T20:02:10.844Z,100194.69
2022-08-26T20:04:39.190Z,100195.72
2022-08-26T20:07:06.874Z,100195.88
2022-08-26T20:09:35.031Z,100205.69
2022-08-26T20:12:02.991Z,100200.44
2022-08-26T20:14:32.042Z,100206.88
2022-08-26T20:16:59.878Z,100208.91
2022-08-26T20:19:45.174Z,100220.78
2022-08-26T20:22:13.072Z,100213.84
2022-08-26T20:24:40.963Z,100188.31
2022-08-26T20:27:09.672Z,100218.41
2022-08-26T20:29:39.804Z,100214.03
2022-08-26T20:32:08.234Z,100157.00
2022-08-26T20:34:36.226Z,100218.59
2022-08-26T20:37:03.995Z,100207.59
2022-08-26T20:39:31.723Z,100211.50
2022-08-26T20:41:59.445Z,100211.50
2022-08-26T20:44:27.205Z,100167.00
2022-08-26T20:46:56.638Z,100217.72
2022-08-26T20:49:24.340Z,100210.28
2022-08-26T20:51:52.252Z,100217.25
2022-08-26T20:54:20.192Z,100142.63
2022-08-26T20:56:48.077Z,100233.50
2022-08-26T20:59:15.943Z,100236.38
2022-08-26T21:01:43.683Z,100244.50
2022-08-26T21:04:13.961Z,100235.69
2022-08-26T21:06:42.317Z,100231.31
2022-08-26T21:09:20.237Z,100233.50
2022-08-26T21:11:49.240Z,100221.97
2022-08-26T21:14:17.496Z,100229.78
2022-08-26T21:16:45.475Z,100237.91
2022-08-26T21:19:16.162Z,100244.34
2022-08-26T21:21:44.491Z,100260.75
2022-08-26T21:24:12.711Z,100252.63
2022-08-26T21:26:40.502Z,100252.63
2022-08-26T21:29:09.796Z,100246.38
2022-08-26T21:31:40.956Z,100186.97
2022-08-26T21:34:14.052Z,100253.16
2022-08-26T21:36:41.825Z,100254.16
2022-08-26T21:39:12.042Z,100264.16
2022-08-26T21:41:40.250Z,100258.72
2022-08-26T21:44:07.958Z,100191.19
2022-08-26T21:46:37.266Z,100274.47
2022-08-26T21:49:06.832Z,100281.59
2022-08-26T21:51:38.311Z,100284.47
2022-08-26T21:54:10.690Z,100287.34
2022-08-26T21:56:44.147Z,100217.06
2022-08-26T21:59:12.016Z,100284.81
2022-08-26T22:01:39.794Z,100281.41
2022-08-26T22:04:08.498Z,100286.81
2022-08-26T22:06:41.655Z,100238.38
2022-08-26T22:09:09.601Z,100294.25
2022-08-26T22:11:37.397Z,100291.72
2022-08-26T22:14:05.346Z,100271.91
2022-08-26T22:16:33.423Z,100280.22
2022-08-26T22:19:01.158Z,100283.06
2022-08-26T22:21:29.011Z,100239.22
2022-08-26T22:23:58.789Z,100283.25
2022-08-26T22:26:30.678Z,100250.56
2022-08-26T22:28:59.497Z,100232.78
2022-08-26T22:31:28.009Z,100281.88
2022-08-26T22:34:06.545Z,100273.91
2022-08-26T22:36:34.260Z,100269.53
2022-08-26T22:39:04.102Z,100272.22
2022-08-26T22:41:32.645Z,100262.06
2022-08-26T22:44:02.581Z,100262.06
2022-08-26T22:46:30.319Z,100265.81
2022-08-26T22:48:58.040Z,100259.53
2022-08-26T22:51:25.765Z,100261.22
2022-08-26T22:53:53.459Z,100250.56
2022-08-26T22:56:22.700Z,100252.44
2022-08-26T22:58:50.489Z,100252.59
2022-08-26T23:01:18.309Z,100255.31
2022-08-26T23:03:46.345Z,100257.34
2022-08-26T23:06:14.211Z,100252.78
2022-08-26T23:08:45.281Z,100214.34
2022-08-26T23:11:13.441Z,100246.84
2022-08-26T23:13:42.511Z,100243.09
2022-08-26T23:16:11.342Z,100192.66
2022-08-26T23:18:39.411Z,100213.31
2022-08-26T23:21:07.471Z,100245.16
2022-08-26T23:23:35.276Z,100220.75
2022-08-26T23:26:06.221Z,100191.00
2022-08-26T23:28:34.488Z,100232.13
2022-08-26T23:31:03.559Z,100223.66
2022-08-26T23:33:45.181Z,100223.31
2022-08-26T23:36:17.461Z,100226.19
2022-08-26T23:38:52.339Z,100218.06
2022-08-26T23:41:21.151Z,100159.31
2022-08-26T23:43:48.996Z,100218.25
2022-08-26T23:46:18.135Z,100211.97
2022-08-26T23:48:45.828Z,100201.81
2022-08-26T23:51:31.042Z,100207.75
2022-08-26T23:53:58.883Z,100207.06
2022-08-26T23:56:26.894Z,100205.22
2022-08-26T23:58:54.692Z,100206.25
